sensor_id;sensor_type;location;lat;lon;timestamp;P1;durP1;ratioP1;P2;durP2;ratioP2
48777;SDS011;34578;0.000;0.000;2024-01-27T00:03:28;4.60;;;2.30;;
48777;SDS011;34578;0.000;0.000;2024-01-27T00:08:28;5.17;;;2.47;;
48777;SDS011;34578;0.000;0.000;2024-01-27T00:13:29;4.80;;;2.10;;
48777;SDS011;34578;0.000;0.000;2024-01-27T00:18:29;4.50;;;2.50;;
48777;SDS011;34578;0.000;0.000;2024-01-27T00:23:29;4.83;;;1.83;;
48777;SDS011;34578;0.000;0.000;2024-01-27T00:28:30;3.28;;;2.17;;
48777;SDS011;34578;0.000;0.000;2024-01-27T00:33:30;4.80;;;2.00;;
48777;SDS011;34578;0.000;0.000;2024-01-27T00:38:33;4.03;;;1.90;;
48777;SDS011;34578;0.000;0.000;2024-01-27T00:43:33;5.93;;;2.10;;
48777;SDS011;34578;0.000;0.000;2024-01-27T00:48:33;3.80;;;1.83;;
48777;SDS011;34578;0.000;0.000;2024-01-27T00:53:34;3.47;;;1.70;;
48777;SDS011;34578;0.000;0.000;2024-01-27T00:58:34;2.90;;;1.40;;
48777;SDS011;34578;0.000;0.000;2024-01-27T01:03:35;4.68;;;2.20;;
48777;SDS011;34578;0.000;0.000;2024-01-27T01:08:36;4.05;;;1.92;;
48777;SDS011;34578;0.000;0.000;2024-01-27T01:13:36;4.20;;;1.50;;
48777;SDS011;34578;0.000;0.000;2024-01-27T01:18:36;4.15;;;1.85;;
48777;SDS011;34578;0.000;0.000;2024-01-27T01:23:37;4.37;;;2.00;;
48777;SDS011;34578;0.000;0.000;2024-01-27T01:28:37;2.23;;;1.30;;
48777;SDS011;34578;0.000;0.000;2024-01-27T01:33:37;4.67;;;1.90;;
48777;SDS011;34578;0.000;0.000;2024-01-27T01:38:38;3.97;;;1.47;;
48777;SDS011;34578;0.000;0.000;2024-01-27T01:43:38;2.65;;;1.23;;
48777;SDS011;34578;0.000;0.000;2024-01-27T01:48:39;4.33;;;1.80;;
48777;SDS011;34578;0.000;0.000;2024-01-27T01:53:39;2.28;;;1.30;;
48777;SDS011;34578;0.000;0.000;2024-01-27T01:58:40;2.05;;;1.23;;
48777;SDS011;34578;0.000;0.000;2024-01-27T02:03:40;5.18;;;1.85;;
48777;SDS011;34578;0.000;0.000;2024-01-27T02:08:51;3.92;;;1.85;;
48777;SDS011;34578;0.000;0.000;2024-01-27T02:13:52;2.30;;;1.30;;
48777;SDS011;34578;0.000;0.000;2024-01-27T02:18:52;2.20;;;1.30;;
48777;SDS011;34578;0.000;0.000;2024-01-27T02:23:52;3.43;;;1.50;;
48777;SDS011;34578;0.000;0.000;2024-01-27T02:28:53;2.57;;;1.40;;
48777;SDS011;34578;0.000;0.000;2024-01-27T02:33:53;3.47;;;1.50;;
48777;SDS011;34578;0.000;0.000;2024-01-27T02:38:54;4.70;;;1.88;;
48777;SDS011;34578;0.000;0.000;2024-01-27T02:43:54;3.13;;;1.33;;
48777;SDS011;34578;0.000;0.000;2024-01-27T02:48:54;2.73;;;1.23;;
48777;SDS011;34578;0.000;0.000;2024-01-27T02:53:55;2.20;;;1.07;;
48777;SDS011;34578;0.000;0.000;2024-01-27T02:58:55;3.97;;;1.53;;
48777;SDS011;34578;0.000;0.000;2024-01-27T03:03:55;2.07;;;0.93;;
48777;SDS011;34578;0.000;0.000;2024-01-27T03:08:56;3.23;;;1.10;;
48777;SDS011;34578;0.000;0.000;2024-01-27T03:13:56;2.60;;;1.50;;
48777;SDS011;34578;0.000;0.000;2024-01-27T03:18:59;2.30;;;1.02;;
48777;SDS011;34578;0.000;0.000;2024-01-27T03:23:59;2.00;;;0.97;;
48777;SDS011;34578;0.000;0.000;2024-01-27T03:28:59;4.07;;;1.30;;
48777;SDS011;34578;0.000;0.000;2024-01-27T03:34:01;2.33;;;1.10;;
48777;SDS011;34578;0.000;0.000;2024-01-27T03:39:02;2.90;;;1.20;;
48777;SDS011;34578;0.000;0.000;2024-01-27T03:44:03;1.10;;;0.95;;
48777;SDS011;34578;0.000;0.000;2024-01-27T03:49:04;2.17;;;1.00;;
48777;SDS011;34578;0.000;0.000;2024-01-27T03:54:05;6.53;;;1.55;;
48777;SDS011;34578;0.000;0.000;2024-01-27T03:59:06;1.83;;;0.82;;
48777;SDS011;34578;0.000;0.000;2024-01-27T04:04:09;1.65;;;0.88;;
48777;SDS011;34578;0.000;0.000;2024-01-27T04:09:09;3.10;;;0.73;;
48777;SDS011;34578;0.000;0.000;2024-01-27T04:14:10;2.57;;;1.27;;
48777;SDS011;34578;0.000;0.000;2024-01-27T04:19:10;2.53;;;0.90;;
48777;SDS011;34578;0.000;0.000;2024-01-27T04:24:10;3.00;;;1.33;;
48777;SDS011;34578;0.000;0.000;2024-01-27T04:29:11;2.23;;;0.93;;
48777;SDS011;34578;0.000;0.000;2024-01-27T04:34:15;1.88;;;1.33;;
48777;SDS011;34578;0.000;0.000;2024-01-27T04:39:15;2.87;;;1.10;;
48777;SDS011;34578;0.000;0.000;2024-01-27T04:44:15;1.10;;;0.70;;
48777;SDS011;34578;0.000;0.000;2024-01-27T04:49:16;1.87;;;1.00;;
48777;SDS011;34578;0.000;0.000;2024-01-27T04:54:16;1.70;;;0.73;;
48777;SDS011;34578;0.000;0.000;2024-01-27T04:59:16;4.00;;;1.00;;
48777;SDS011;34578;0.000;0.000;2024-01-27T05:04:17;1.77;;;1.20;;
48777;SDS011;34578;0.000;0.000;2024-01-27T05:09:17;2.50;;;1.10;;
48777;SDS011;34578;0.000;0.000;2024-01-27T05:14:18;1.60;;;0.80;;
48777;SDS011;34578;0.000;0.000;2024-01-27T05:19:18;2.03;;;1.25;;
48777;SDS011;34578;0.000;0.000;2024-01-27T05:24:18;2.07;;;0.83;;
48777;SDS011;34578;0.000;0.000;2024-01-27T05:29:19;3.55;;;1.00;;
48777;SDS011;34578;0.000;0.000;2024-01-27T05:34:19;0.60;;;0.57;;
48777;SDS011;34578;0.000;0.000;2024-01-27T05:39:21;1.77;;;1.10;;
48777;SDS011;34578;0.000;0.000;2024-01-27T05:44:21;1.77;;;0.90;;
48777;SDS011;34578;0.000;0.000;2024-01-27T05:49:22;2.30;;;0.77;;
48777;SDS011;34578;0.000;0.000;2024-01-27T05:54:22;3.80;;;0.87;;
48777;SDS011;34578;0.000;0.000;2024-01-27T05:59:24;2.58;;;1.27;;
48777;SDS011;34578;0.000;0.000;2024-01-27T06:04:24;2.27;;;0.83;;
48777;SDS011;34578;0.000;0.000;2024-01-27T06:09:25;1.92;;;0.90;;
48777;SDS011;34578;0.000;0.000;2024-01-27T06:14:25;1.70;;;1.07;;
48777;SDS011;34578;0.000;0.000;2024-01-27T06:19:25;2.17;;;0.80;;
48777;SDS011;34578;0.000;0.000;2024-01-27T06:24:26;2.38;;;1.85;;
48777;SDS011;34578;0.000;0.000;2024-01-27T06:29:26;3.27;;;1.20;;
48777;SDS011;34578;0.000;0.000;2024-01-27T06:34:27;2.23;;;0.90;;
48777;SDS011;34578;0.000;0.000;2024-01-27T06:39:27;3.97;;;0.83;;
48777;SDS011;34578;0.000;0.000;2024-01-27T06:44:29;2.38;;;1.33;;
48777;SDS011;34578;0.000;0.000;2024-01-27T06:49:29;1.23;;;0.90;;
48777;SDS011;34578;0.000;0.000;2024-01-27T06:54:30;4.17;;;1.03;;
48777;SDS011;34578;0.000;0.000;2024-01-27T06:59:30;2.03;;;1.00;;
48777;SDS011;34578;0.000;0.000;2024-01-27T07:04:30;1.13;;;0.80;;
48777;SDS011;34578;0.000;0.000;2024-01-27T07:09:31;3.90;;;1.07;;
48777;SDS011;34578;0.000;0.000;2024-01-27T07:14:31;1.60;;;0.80;;
48777;SDS011;34578;0.000;0.000;2024-01-27T07:19:31;1.27;;;1.17;;
48777;SDS011;34578;0.000;0.000;2024-01-27T07:24:32;2.40;;;1.38;;
48777;SDS011;34578;0.000;0.000;2024-01-27T07:29:32;1.90;;;1.30;;
48777;SDS011;34578;0.000;0.000;2024-01-27T07:34:33;1.77;;;0.90;;
48777;SDS011;34578;0.000;0.000;2024-01-27T07:39:33;2.55;;;1.40;;
48777;SDS011;34578;0.000;0.000;2024-01-27T07:44:34;3.15;;;1.50;;
48777;SDS011;34578;0.000;0.000;2024-01-27T07:49:34;3.03;;;1.20;;
48777;SDS011;34578;0.000;0.000;2024-01-27T07:54:34;3.57;;;1.83;;
48777;SDS011;34578;0.000;0.000;2024-01-27T07:59:39;5.10;;;1.42;;
48777;SDS011;34578;0.000;0.000;2024-01-27T08:04:39;7.15;;;1.38;;
48777;SDS011;34578;0.000;0.000;2024-01-27T08:09:39;3.40;;;1.53;;
48777;SDS011;34578;0.000;0.000;2024-01-27T08:14:40;2.20;;;1.50;;
48777;SDS011;34578;0.000;0.000;2024-01-27T08:19:40;3.80;;;1.47;;
48777;SDS011;34578;0.000;0.000;2024-01-27T08:24:41;5.67;;;1.53;;
48777;SDS011;34578;0.000;0.000;2024-01-27T08:29:41;2.03;;;1.37;;
48777;SDS011;34578;0.000;0.000;2024-01-27T08:34:41;3.43;;;1.33;;
48777;SDS011;34578;0.000;0.000;2024-01-27T08:39:42;4.03;;;2.07;;
48777;SDS011;34578;0.000;0.000;2024-01-27T08:44:42;7.80;;;1.93;;
48777;SDS011;34578;0.000;0.000;2024-01-27T08:49:42;6.00;;;2.40;;
48777;SDS011;34578;0.000;0.000;2024-01-27T08:54:43;7.63;;;2.37;;
48777;SDS011;34578;0.000;0.000;2024-01-27T08:59:43;6.20;;;2.40;;
48777;SDS011;34578;0.000;0.000;2024-01-27T09:04:46;4.55;;;2.55;;
48777;SDS011;34578;0.000;0.000;2024-01-27T09:09:46;4.50;;;2.07;;
48777;SDS011;34578;0.000;0.000;2024-01-27T09:14:46;5.43;;;2.47;;
48777;SDS011;34578;0.000;0.000;2024-01-27T09:19:47;3.20;;;1.80;;
48777;SDS011;34578;0.000;0.000;2024-01-27T09:24:47;3.22;;;1.40;;
48777;SDS011;34578;0.000;0.000;2024-01-27T09:29:48;4.43;;;1.90;;
48777;SDS011;34578;0.000;0.000;2024-01-27T09:34:48;6.18;;;1.40;;
48777;SDS011;34578;0.000;0.000;2024-01-27T09:39:48;3.83;;;1.40;;
48777;SDS011;34578;0.000;0.000;2024-01-27T09:44:49;2.67;;;1.50;;
48777;SDS011;34578;0.000;0.000;2024-01-27T09:49:49;10.98;;;1.45;;
48777;SDS011;34578;0.000;0.000;2024-01-27T09:54:51;4.00;;;1.58;;
48777;SDS011;34578;0.000;0.000;2024-01-27T09:59:52;8.02;;;1.58;;
48777;SDS011;34578;0.000;0.000;2024-01-27T10:04:53;6.13;;;1.58;;
48777;SDS011;34578;0.000;0.000;2024-01-27T10:09:54;9.45;;;1.65;;
48777;SDS011;34578;0.000;0.000;2024-01-27T10:14:54;6.40;;;2.40;;
48777;SDS011;34578;0.000;0.000;2024-01-27T10:20:01;7.53;;;1.60;;
48777;SDS011;34578;0.000;0.000;2024-01-27T10:25:08;3.92;;;1.48;;
48777;SDS011;34578;0.000;0.000;2024-01-27T10:30:16;14.80;;;2.75;;
48777;SDS011;34578;0.000;0.000;2024-01-27T10:35:18;5.35;;;1.55;;
48777;SDS011;34578;0.000;0.000;2024-01-27T10:40:20;7.95;;;1.77;;
48777;SDS011;34578;0.000;0.000;2024-01-27T10:45:21;7.90;;;1.58;;
48777;SDS011;34578;0.000;0.000;2024-01-27T10:50:21;7.53;;;1.45;;
48777;SDS011;34578;0.000;0.000;2024-01-27T10:55:24;9.63;;;2.00;;
48777;SDS011;34578;0.000;0.000;2024-01-27T11:00:24;18.67;;;5.63;;
48777;SDS011;34578;0.000;0.000;2024-01-27T11:05:26;4.15;;;1.45;;
48777;SDS011;34578;0.000;0.000;2024-01-27T11:10:29;7.60;;;1.38;;
48777;SDS011;34578;0.000;0.000;2024-01-27T11:15:35;4.83;;;1.43;;
48777;SDS011;34578;0.000;0.000;2024-01-27T11:20:35;4.33;;;0.97;;
48777;SDS011;34578;0.000;0.000;2024-01-27T11:25:36;3.53;;;1.38;;
48777;SDS011;34578;0.000;0.000;2024-01-27T11:30:37;6.43;;;1.57;;
48777;SDS011;34578;0.000;0.000;2024-01-27T11:35:40;4.07;;;1.30;;
48777;SDS011;34578;0.000;0.000;2024-01-27T11:40:46;11.00;;;1.40;;
48777;SDS011;34578;0.000;0.000;2024-01-27T11:45:56;8.52;;;1.75;;
48777;SDS011;34578;0.000;0.000;2024-01-27T11:51:07;5.63;;;2.30;;
48777;SDS011;34578;0.000;0.000;2024-01-27T11:56:11;6.32;;;1.42;;
48777;SDS011;34578;0.000;0.000;2024-01-27T12:01:12;7.35;;;1.48;;
48777;SDS011;34578;0.000;0.000;2024-01-27T12:06:12;10.10;;;1.67;;
48777;SDS011;34578;0.000;0.000;2024-01-27T12:11:13;8.45;;;1.95;;
48777;SDS011;34578;0.000;0.000;2024-01-27T12:16:14;10.48;;;1.73;;
48777;SDS011;34578;0.000;0.000;2024-01-27T12:21:18;10.15;;;2.78;;
48777;SDS011;34578;0.000;0.000;2024-01-27T12:26:20;10.70;;;2.83;;
48777;SDS011;34578;0.000;0.000;2024-01-27T12:31:22;2.70;;;1.30;;
48777;SDS011;34578;0.000;0.000;2024-01-27T12:36:23;3.13;;;1.33;;
48777;SDS011;34578;0.000;0.000;2024-01-27T12:41:24;7.20;;;1.40;;
48777;SDS011;34578;0.000;0.000;2024-01-27T12:46:26;2.80;;;1.15;;
48777;SDS011;34578;0.000;0.000;2024-01-27T12:51:27;4.50;;;1.33;;
48777;SDS011;34578;0.000;0.000;2024-01-27T12:56:27;4.50;;;1.30;;
48777;SDS011;34578;0.000;0.000;2024-01-27T13:01:29;4.50;;;1.13;;
48777;SDS011;34578;0.000;0.000;2024-01-27T13:06:30;5.73;;;1.40;;
48777;SDS011;34578;0.000;0.000;2024-01-27T13:11:31;3.92;;;1.25;;
48777;SDS011;34578;0.000;0.000;2024-01-27T13:16:31;3.77;;;1.17;;
48777;SDS011;34578;0.000;0.000;2024-01-27T13:21:32;2.05;;;1.20;;
48777;SDS011;34578;0.000;0.000;2024-01-27T13:26:34;1.50;;;0.90;;
48777;SDS011;34578;0.000;0.000;2024-01-27T13:31:37;1.48;;;0.90;;
48777;SDS011;34578;0.000;0.000;2024-01-27T13:36:38;3.63;;;0.83;;
48777;SDS011;34578;0.000;0.000;2024-01-27T13:41:38;2.20;;;0.90;;
48777;SDS011;34578;0.000;0.000;2024-01-27T13:46:38;3.40;;;1.20;;
48777;SDS011;34578;0.000;0.000;2024-01-27T13:51:39;3.22;;;1.23;;
48777;SDS011;34578;0.000;0.000;2024-01-27T13:56:39;6.43;;;1.07;;
48777;SDS011;34578;0.000;0.000;2024-01-27T14:01:40;2.30;;;0.73;;
48777;SDS011;34578;0.000;0.000;2024-01-27T14:06:40;1.70;;;0.87;;
48777;SDS011;34578;0.000;0.000;2024-01-27T14:11:40;1.30;;;0.73;;
48777;SDS011;34578;0.000;0.000;2024-01-27T14:16:43;1.87;;;0.93;;
48777;SDS011;34578;0.000;0.000;2024-01-27T14:21:44;3.03;;;0.80;;
48777;SDS011;34578;0.000;0.000;2024-01-27T14:26:45;2.87;;;1.00;;
48777;SDS011;34578;0.000;0.000;2024-01-27T14:31:45;2.47;;;0.67;;
48777;SDS011;34578;0.000;0.000;2024-01-27T14:36:46;3.53;;;0.90;;
48777;SDS011;34578;0.000;0.000;2024-01-27T14:41:46;1.53;;;0.90;;
48777;SDS011;34578;0.000;0.000;2024-01-27T14:46:47;1.00;;;0.90;;
48777;SDS011;34578;0.000;0.000;2024-01-27T14:51:47;2.00;;;0.90;;
48777;SDS011;34578;0.000;0.000;2024-01-27T14:56:48;1.23;;;0.75;;
48777;SDS011;34578;0.000;0.000;2024-01-27T15:01:48;2.90;;;1.00;;
48777;SDS011;34578;0.000;0.000;2024-01-27T15:06:49;1.27;;;0.80;;
48777;SDS011;34578;0.000;0.000;2024-01-27T15:11:50;1.20;;;0.63;;
48777;SDS011;34578;0.000;0.000;2024-01-27T15:16:51;3.10;;;0.88;;
48777;SDS011;34578;0.000;0.000;2024-01-27T15:21:51;1.07;;;0.73;;
48777;SDS011;34578;0.000;0.000;2024-01-27T15:26:51;3.80;;;0.77;;
48777;SDS011;34578;0.000;0.000;2024-01-27T15:31:53;2.35;;;1.40;;
48777;SDS011;34578;0.000;0.000;2024-01-27T15:36:53;1.17;;;0.83;;
48777;SDS011;34578;0.000;0.000;2024-01-27T15:41:54;2.70;;;1.63;;
48777;SDS011;34578;0.000;0.000;2024-01-27T15:46:54;1.15;;;0.70;;
48777;SDS011;34578;0.000;0.000;2024-01-27T15:51:56;1.77;;;1.02;;
48777;SDS011;34578;0.000;0.000;2024-01-27T15:56:56;1.57;;;1.10;;
48777;SDS011;34578;0.000;0.000;2024-01-27T16:01:57;1.13;;;0.50;;
48777;SDS011;34578;0.000;0.000;2024-01-27T16:06:57;1.73;;;0.77;;
48777;SDS011;34578;0.000;0.000;2024-01-27T16:11:58;1.47;;;0.50;;
48777;SDS011;34578;0.000;0.000;2024-01-27T16:16:58;0.60;;;0.57;;
48777;SDS011;34578;0.000;0.000;2024-01-27T16:21:58;1.13;;;0.60;;
48777;SDS011;34578;0.000;0.000;2024-01-27T16:26:58;1.53;;;0.70;;
48777;SDS011;34578;0.000;0.000;2024-01-27T16:31:59;0.60;;;0.50;;
48777;SDS011;34578;0.000;0.000;2024-01-27T16:37:00;2.05;;;0.90;;
48777;SDS011;34578;0.000;0.000;2024-01-27T16:42:00;1.10;;;0.63;;
48777;SDS011;34578;0.000;0.000;2024-01-27T16:47:00;1.00;;;0.87;;
48777;SDS011;34578;0.000;0.000;2024-01-27T16:52:01;0.70;;;0.50;;
48777;SDS011;34578;0.000;0.000;2024-01-27T16:57:02;1.10;;;0.80;;
48777;SDS011;34578;0.000;0.000;2024-01-27T17:02:02;1.10;;;0.70;;
48777;SDS011;34578;0.000;0.000;2024-01-27T17:07:04;1.88;;;0.73;;
48777;SDS011;34578;0.000;0.000;2024-01-27T17:12:08;0.98;;;0.68;;
48777;SDS011;34578;0.000;0.000;2024-01-27T17:17:10;0.75;;;0.55;;
48777;SDS011;34578;0.000;0.000;2024-01-27T17:22:10;0.77;;;0.60;;
48777;SDS011;34578;0.000;0.000;2024-01-27T17:27:11;1.30;;;0.60;;
48777;SDS011;34578;0.000;0.000;2024-01-27T17:32:11;1.07;;;0.77;;
48777;SDS011;34578;0.000;0.000;2024-01-27T17:37:12;1.17;;;0.98;;
48777;SDS011;34578;0.000;0.000;2024-01-27T17:42:12;0.80;;;0.63;;
48777;SDS011;34578;0.000;0.000;2024-01-27T17:47:12;0.90;;;0.70;;
48777;SDS011;34578;0.000;0.000;2024-01-27T17:52:13;0.88;;;0.68;;
48777;SDS011;34578;0.000;0.000;2024-01-27T17:57:13;1.23;;;0.80;;
48777;SDS011;34578;0.000;0.000;2024-01-27T18:02:13;1.93;;;0.87;;
48777;SDS011;34578;0.000;0.000;2024-01-27T18:07:14;1.30;;;0.87;;
48777;SDS011;34578;0.000;0.000;2024-01-27T18:12:14;1.67;;;1.10;;
48777;SDS011;34578;0.000;0.000;2024-01-27T18:17:15;1.00;;;0.50;;
48777;SDS011;34578;0.000;0.000;2024-01-27T18:22:15;1.10;;;0.70;;
48777;SDS011;34578;0.000;0.000;2024-01-27T18:27:15;0.80;;;0.60;;
48777;SDS011;34578;0.000;0.000;2024-01-27T18:32:16;2.13;;;0.80;;
48777;SDS011;34578;0.000;0.000;2024-01-27T18:37:16;1.17;;;0.73;;
48777;SDS011;34578;0.000;0.000;2024-01-27T18:42:16;1.20;;;0.97;;
48777;SDS011;34578;0.000;0.000;2024-01-27T18:47:17;1.27;;;0.80;;
48777;SDS011;34578;0.000;0.000;2024-01-27T18:52:17;1.80;;;0.80;;
48777;SDS011;34578;0.000;0.000;2024-01-27T18:57:17;1.00;;;0.60;;
48777;SDS011;34578;0.000;0.000;2024-01-27T19:02:19;1.25;;;0.93;;
48777;SDS011;34578;0.000;0.000;2024-01-27T19:07:19;1.07;;;0.80;;
48777;SDS011;34578;0.000;0.000;2024-01-27T19:12:19;1.10;;;0.67;;
48777;SDS011;34578;0.000;0.000;2024-01-27T19:17:20;0.80;;;0.70;;
48777;SDS011;34578;0.000;0.000;2024-01-27T19:22:20;1.00;;;0.90;;
48777;SDS011;34578;0.000;0.000;2024-01-27T19:27:20;2.30;;;0.93;;
48777;SDS011;34578;0.000;0.000;2024-01-27T19:32:21;1.30;;;1.07;;
48777;SDS011;34578;0.000;0.000;2024-01-27T19:37:22;1.55;;;1.00;;
48777;SDS011;34578;0.000;0.000;2024-01-27T19:42:22;1.13;;;1.00;;
48777;SDS011;34578;0.000;0.000;2024-01-27T19:47:23;1.17;;;0.90;;
48777;SDS011;34578;0.000;0.000;2024-01-27T19:52:23;1.93;;;0.63;;
48777;SDS011;34578;0.000;0.000;2024-01-27T19:57:23;1.23;;;0.80;;
48777;SDS011;34578;0.000;0.000;2024-01-27T20:02:24;0.70;;;0.70;;
48777;SDS011;34578;0.000;0.000;2024-01-27T20:07:24;1.00;;;0.80;;
48777;SDS011;34578;0.000;0.000;2024-01-27T20:12:24;0.83;;;0.70;;
48777;SDS011;34578;0.000;0.000;2024-01-27T20:17:25;0.90;;;0.80;;
48777;SDS011;34578;0.000;0.000;2024-01-27T20:22:25;1.23;;;0.70;;
48777;SDS011;34578;0.000;0.000;2024-01-27T20:27:26;1.03;;;0.83;;
48777;SDS011;34578;0.000;0.000;2024-01-27T20:32:26;1.13;;;0.83;;
48777;SDS011;34578;0.000;0.000;2024-01-27T20:37:27;0.70;;;0.65;;
48777;SDS011;34578;0.000;0.000;2024-01-27T20:42:27;0.63;;;0.57;;
48777;SDS011;34578;0.000;0.000;2024-01-27T20:47:28;1.20;;;0.80;;
48777;SDS011;34578;0.000;0.000;2024-01-27T20:52:29;1.03;;;0.80;;
48777;SDS011;34578;0.000;0.000;2024-01-27T20:57:29;1.00;;;0.90;;
48777;SDS011;34578;0.000;0.000;2024-01-27T21:02:29;1.20;;;0.60;;
48777;SDS011;34578;0.000;0.000;2024-01-27T21:07:30;1.27;;;0.70;;
48777;SDS011;34578;0.000;0.000;2024-01-27T21:12:30;1.02;;;0.70;;
48777;SDS011;34578;0.000;0.000;2024-01-27T21:17:31;0.70;;;0.70;;
48777;SDS011;34578;0.000;0.000;2024-01-27T21:22:31;1.27;;;0.80;;
48777;SDS011;34578;0.000;0.000;2024-01-27T21:27:31;1.00;;;0.83;;
48777;SDS011;34578;0.000;0.000;2024-01-27T21:32:32;1.13;;;1.00;;
48777;SDS011;34578;0.000;0.000;2024-01-27T21:37:32;2.00;;;1.27;;
48777;SDS011;34578;0.000;0.000;2024-01-27T21:42:32;0.98;;;0.80;;
48777;SDS011;34578;0.000;0.000;2024-01-27T21:47:35;0.70;;;0.50;;
48777;SDS011;34578;0.000;0.000;2024-01-27T21:52:35;1.30;;;1.00;;
48777;SDS011;34578;0.000;0.000;2024-01-27T21:57:36;1.43;;;0.77;;
48777;SDS011;34578;0.000;0.000;2024-01-27T22:02:36;0.70;;;0.70;;
48777;SDS011;34578;0.000;0.000;2024-01-27T22:07:37;1.05;;;0.80;;
48777;SDS011;34578;0.000;0.000;2024-01-27T22:12:38;1.08;;;0.80;;
48777;SDS011;34578;0.000;0.000;2024-01-27T22:17:38;1.03;;;0.90;;
48777;SDS011;34578;0.000;0.000;2024-01-27T22:22:40;1.77;;;1.15;;
48777;SDS011;34578;0.000;0.000;2024-01-27T22:27:41;4.00;;;1.10;;
48777;SDS011;34578;0.000;0.000;2024-01-27T22:32:41;0.80;;;0.80;;
48777;SDS011;34578;0.000;0.000;2024-01-27T22:37:42;0.73;;;0.73;;
48777;SDS011;34578;0.000;0.000;2024-01-27T22:42:42;0.90;;;0.80;;
48777;SDS011;34578;0.000;0.000;2024-01-27T22:47:42;1.60;;;0.90;;
48777;SDS011;34578;0.000;0.000;2024-01-27T22:52:43;0.73;;;0.70;;
48777;SDS011;34578;0.000;0.000;2024-01-27T22:57:43;0.90;;;0.70;;
48777;SDS011;34578;0.000;0.000;2024-01-27T23:02:43;1.03;;;0.67;;
48777;SDS011;34578;0.000;0.000;2024-01-27T23:07:44;1.03;;;0.70;;
48777;SDS011;34578;0.000;0.000;2024-01-27T23:12:44;1.77;;;0.90;;
48777;SDS011;34578;0.000;0.000;2024-01-27T23:17:45;1.13;;;0.90;;
48777;SDS011;34578;0.000;0.000;2024-01-27T23:22:45;1.07;;;0.97;;
48777;SDS011;34578;0.000;0.000;2024-01-27T23:27:45;0.60;;;0.50;;
48777;SDS011;34578;0.000;0.000;2024-01-27T23:32:46;0.87;;;0.80;;
48777;SDS011;34578;0.000;0.000;2024-01-27T23:37:46;0.97;;;0.77;;
48777;SDS011;34578;0.000;0.000;2024-01-27T23:42:46;1.10;;;0.80;;
48777;SDS011;34578;0.000;0.000;2024-01-27T23:47:47;0.73;;;0.67;;
48777;SDS011;34578;0.000;0.000;2024-01-27T23:52:47;1.02;;;0.82;;
48777;SDS011;34578;0.000;0.000;2024-01-27T23:57:51;0.60;;;0.55;;
